FLJ124 EGTK-EGGD
Flight info
| Callsign | FLJ124 |
|---|---|
| Flight time | 0h 29m |
| Altitude | 12000 |
| Route | CONKO DCT POMAX |
| Aircraft | C25C/M-SDE2E3FGHRWXY/LB1 |
Departure
| Time | 2026-04-21 21:51 |
|---|---|
| Airport | London Oxford Airport (EGTK) |
Arrival
| Time | 2026-04-21 22:20 |
|---|---|
| Airport | Bristol Airport (EGGD) |
| Time | Latitude | Longitude | Altitude | Speed | Heading |
|---|---|---|---|---|---|
| 2026-04-21 21:32 | 51.83102 | -1.31468 | 261 ft | 0 kts | 52° |
| 2026-04-21 21:44 | 51.83113 | -1.31447 | 261 ft | 3 kts | 43° |
| 2026-04-21 21:44 | 51.83124 | -1.31436 | 261 ft | 0 kts | 3° |
| 2026-04-21 21:44 | 51.83136 | -1.31437 | 261 ft | 1 kts | 338° |
| 2026-04-21 21:44 | 51.83140 | -1.31445 | 261 ft | 1 kts | 288° |
| 2026-04-21 21:45 | 51.83128 | -1.31511 | 261 ft | 7 kts | 246° |
| 2026-04-21 21:45 | 51.83099 | -1.31529 | 261 ft | 5 kts | 163° |
| 2026-04-21 21:45 | 51.83072 | -1.31528 | 261 ft | 2 kts | 196° |
| 2026-04-21 21:45 | 51.83050 | -1.31546 | 261 ft | 7 kts | 213° |
| 2026-04-21 21:46 | 51.83023 | -1.31633 | 261 ft | 11 kts | 264° |
| 2026-04-21 21:46 | 51.83007 | -1.31787 | 261 ft | 17 kts | 261° |
| 2026-04-21 21:46 | 51.82989 | -1.31969 | 261 ft | 12 kts | 260° |
| 2026-04-21 21:46 | 51.82985 | -1.32013 | 261 ft | 0 kts | 264° |
| 2026-04-21 21:49 | 51.82985 | -1.32016 | 261 ft | 0 kts | 265° |
| 2026-04-21 21:49 | 51.82984 | -1.32027 | 261 ft | 2 kts | 266° |
| 2026-04-21 21:50 | 51.82986 | -1.32079 | 261 ft | 6 kts | 282° |
| 2026-04-21 21:50 | 51.83008 | -1.32167 | 262 ft | 10 kts | 305° |
| 2026-04-21 21:50 | 51.83067 | -1.32187 | 262 ft | 14 kts | 13° |
| 2026-04-21 21:50 | 51.83337 | -1.32106 | 262 ft | 75 kts | 11° |
| 2026-04-21 21:51 | 51.84071 | -1.31888 | 364 ft | 130 kts | 12° |
| 2026-04-21 21:51 | 51.85063 | -1.31683 | 792 ft | 157 kts | 10° |
| 2026-04-21 21:51 | 51.86188 | -1.31453 | 1368 ft | 160 kts | 14° |
| 2026-04-21 21:51 | 51.87298 | -1.31686 | 1776 ft | 174 kts | 342° |
| 2026-04-21 21:52 | 51.88185 | -1.33214 | 2108 ft | 203 kts | 297° |
| 2026-04-21 21:52 | 51.88322 | -1.35465 | 2559 ft | 207 kts | 253° |
| 2026-04-21 21:52 | 51.87511 | -1.37311 | 2939 ft | 206 kts | 214° |
| 2026-04-21 21:52 | 51.86411 | -1.38857 | 3321 ft | 212 kts | 214° |
| 2026-04-21 21:53 | 51.85371 | -1.40338 | 4162 ft | 192 kts | 214° |
| 2026-04-21 21:53 | 51.84365 | -1.41822 | 4514 ft | 203 kts | 217° |
| 2026-04-21 21:53 | 51.83350 | -1.43461 | 4968 ft | 205 kts | 221° |
| 2026-04-21 21:53 | 51.82458 | -1.45201 | 5588 ft | 199 kts | 229° |
| 2026-04-21 21:54 | 51.81704 | -1.47161 | 5890 ft | 213 kts | 239° |
| 2026-04-21 21:54 | 51.81160 | -1.49409 | 6273 ft | 218 kts | 252° |
| 2026-04-21 21:54 | 51.80970 | -1.51801 | 6820 ft | 216 kts | 268° |
| 2026-04-21 21:54 | 51.80528 | -1.54249 | 6533 ft | 245 kts | 230° |
| 2026-04-21 21:55 | 51.79338 | -1.56308 | 6556 ft | 257 kts | 223° |
| 2026-04-21 21:55 | 51.78220 | -1.58671 | 6553 ft | 273 kts | 233° |
| 2026-04-21 21:55 | 51.77272 | -1.61397 | 6550 ft | 283 kts | 239° |
| 2026-04-21 21:55 | 51.76322 | -1.64224 | 6607 ft | 287 kts | 237° |
| 2026-04-21 21:56 | 51.75331 | -1.66968 | 6970 ft | 279 kts | 236° |
| 2026-04-21 21:56 | 51.74353 | -1.69636 | 7330 ft | 273 kts | 236° |
| 2026-04-21 21:56 | 51.73398 | -1.72248 | 7684 ft | 268 kts | 236° |
| 2026-04-21 21:56 | 51.72473 | -1.74800 | 8020 ft | 265 kts | 236° |
| 2026-04-21 21:57 | 51.71549 | -1.77355 | 8385 ft | 261 kts | 236° |
| 2026-04-21 21:57 | 51.70628 | -1.79876 | 8745 ft | 259 kts | 236° |
| 2026-04-21 21:57 | 51.69720 | -1.82373 | 9101 ft | 256 kts | 236° |
| 2026-04-21 21:57 | 51.68833 | -1.84808 | 9464 ft | 253 kts | 237° |
| 2026-04-21 21:58 | 51.67943 | -1.87242 | 9832 ft | 251 kts | 237° |
| 2026-04-21 21:58 | 51.67057 | -1.89664 | 10200 ft | 249 kts | 237° |
| 2026-04-21 21:58 | 51.66181 | -1.92064 | 10532 ft | 247 kts | 237° |
| 2026-04-21 21:58 | 51.65313 | -1.94435 | 10866 ft | 245 kts | 237° |
| 2026-04-21 21:59 | 51.64451 | -1.96787 | 11207 ft | 243 kts | 237° |
| 2026-04-21 21:59 | 51.63586 | -1.99150 | 11554 ft | 253 kts | 237° |
| 2026-04-21 21:59 | 51.62633 | -2.01735 | 11914 ft | 289 kts | 237° |
| 2026-04-21 21:59 | 51.61363 | -2.04452 | 12283 ft | 318 kts | 218° |
| 2026-04-21 22:00 | 51.59322 | -2.06052 | 12671 ft | 338 kts | 193° |
| 2026-04-21 22:00 | 51.56943 | -2.06881 | 13075 ft | 359 kts | 187° |
| 2026-04-21 22:00 | 51.54536 | -2.08166 | 13453 ft | 372 kts | 208° |
| 2026-04-21 22:00 | 51.52648 | -2.10732 | 13757 ft | 343 kts | 225° |
| 2026-04-21 22:01 | 51.51426 | -2.13942 | 13588 ft | 334 kts | 246° |
| 2026-04-21 22:01 | 51.50606 | -2.17390 | 13429 ft | 325 kts | 248° |
| 2026-04-21 22:01 | 51.49867 | -2.20777 | 13271 ft | 318 kts | 250° |
| 2026-04-21 22:01 | 51.49148 | -2.24100 | 13099 ft | 312 kts | 249° |
| 2026-04-21 22:02 | 51.48423 | -2.27322 | 12951 ft | 309 kts | 249° |
| 2026-04-21 22:02 | 51.47684 | -2.30540 | 12784 ft | 305 kts | 248° |
| 2026-04-21 22:02 | 51.46993 | -2.33747 | 12621 ft | 304 kts | 254° |
| 2026-04-21 22:02 | 51.46771 | -2.37119 | 12456 ft | 303 kts | 268° |
| 2026-04-21 22:03 | 51.46732 | -2.40475 | 12288 ft | 301 kts | 269° |
| 2026-04-21 22:03 | 51.46733 | -2.43823 | 12140 ft | 300 kts | 270° |
| 2026-04-21 22:03 | 51.46743 | -2.47158 | 11983 ft | 298 kts | 270° |
| 2026-04-21 22:03 | 51.46755 | -2.50492 | 11831 ft | 297 kts | 270° |
| 2026-04-21 22:04 | 51.46769 | -2.53760 | 11686 ft | 297 kts | 270° |
| 2026-04-21 22:04 | 51.46783 | -2.57068 | 11534 ft | 296 kts | 270° |
| 2026-04-21 22:04 | 51.46793 | -2.60369 | 11382 ft | 296 kts | 270° |
| 2026-04-21 22:04 | 51.46807 | -2.63667 | 11235 ft | 295 kts | 270° |
| 2026-04-21 22:05 | 51.46823 | -2.66967 | 11058 ft | 296 kts | 270° |
| 2026-04-21 22:05 | 51.46835 | -2.70287 | 10817 ft | 299 kts | 270° |
| 2026-04-21 22:05 | 51.46847 | -2.73639 | 10566 ft | 302 kts | 270° |
| 2026-04-21 22:05 | 51.46858 | -2.77019 | 10333 ft | 303 kts | 270° |
| 2026-04-21 22:06 | 51.46870 | -2.80409 | 10089 ft | 305 kts | 270° |
| 2026-04-21 22:06 | 51.46880 | -2.83839 | 9696 ft | 309 kts | 270° |
| 2026-04-21 22:06 | 51.46895 | -2.87229 | 9308 ft | 301 kts | 270° |
| 2026-04-21 22:06 | 51.46912 | -2.90483 | 8910 ft | 283 kts | 270° |
| 2026-04-21 22:07 | 51.46930 | -2.93576 | 8513 ft | 270 kts | 270° |
| 2026-04-21 22:07 | 51.46954 | -2.96529 | 8116 ft | 260 kts | 270° |
| 2026-04-21 22:07 | 51.46979 | -2.99364 | 7731 ft | 253 kts | 270° |
| 2026-04-21 22:07 | 51.47008 | -3.02169 | 7341 ft | 248 kts | 270° |
| 2026-04-21 22:08 | 51.47041 | -3.04924 | 6948 ft | 244 kts | 270° |
| 2026-04-21 22:08 | 51.47074 | -3.07628 | 6569 ft | 242 kts | 270° |
| 2026-04-21 22:08 | 51.47114 | -3.10314 | 6163 ft | 240 kts | 270° |
| 2026-04-21 22:08 | 51.47157 | -3.12915 | 5747 ft | 223 kts | 270° |
| 2026-04-21 22:09 | 51.47200 | -3.15326 | 5299 ft | 210 kts | 270° |
| 2026-04-21 22:09 | 51.47173 | -3.17620 | 4828 ft | 201 kts | 251° |
| 2026-04-21 22:09 | 51.46376 | -3.19239 | 4362 ft | 179 kts | 196° |
| 2026-04-21 22:09 | 51.45260 | -3.19257 | 3919 ft | 154 kts | 146° |
| 2026-04-21 22:10 | 51.44364 | -3.18396 | 3484 ft | 151 kts | 141° |
| 2026-04-21 22:10 | 51.43473 | -3.17510 | 3107 ft | 150 kts | 139° |
| 2026-04-21 22:10 | 51.42599 | -3.16641 | 2800 ft | 146 kts | 140° |
| 2026-04-21 22:10 | 51.41737 | -3.15830 | 2554 ft | 139 kts | 140° |
| 2026-04-21 22:11 | 51.40941 | -3.15107 | 2481 ft | 125 kts | 140° |
| 2026-04-21 22:11 | 51.40213 | -3.14478 | 2438 ft | 114 kts | 140° |
| 2026-04-21 22:11 | 51.39499 | -3.13863 | 2440 ft | 119 kts | 140° |
| 2026-04-21 22:11 | 51.38762 | -3.13212 | 2441 ft | 122 kts | 140° |
| 2026-04-21 22:12 | 51.38265 | -3.12774 | 2437 ft | 123 kts | 140° |
| 2026-04-21 22:12 | 51.37533 | -3.12061 | 2450 ft | 120 kts | 122° |
| 2026-04-21 22:12 | 51.37206 | -3.10443 | 2447 ft | 116 kts | 107° |
| 2026-04-21 22:12 | 51.37051 | -3.09611 | 2453 ft | 115 kts | 101° |
| 2026-04-21 22:13 | 51.36956 | -3.08362 | 2453 ft | 113 kts | 86° |
| 2026-04-21 22:13 | 51.36951 | -3.07107 | 2455 ft | 112 kts | 89° |
| 2026-04-21 22:13 | 51.36987 | -3.05877 | 2457 ft | 111 kts | 89° |
| 2026-04-21 22:13 | 51.37031 | -3.04641 | 2457 ft | 111 kts | 87° |
| 2026-04-21 22:14 | 51.37075 | -3.03398 | 2460 ft | 114 kts | 87° |
| 2026-04-21 22:14 | 51.37124 | -3.02100 | 2479 ft | 119 kts | 88° |
| 2026-04-21 22:14 | 51.37178 | -3.00773 | 2478 ft | 122 kts | 87° |
| 2026-04-21 22:14 | 51.37229 | -2.99392 | 2477 ft | 126 kts | 86° |
| 2026-04-21 22:15 | 51.37282 | -2.97979 | 2480 ft | 128 kts | 87° |
| 2026-04-21 22:15 | 51.37338 | -2.96539 | 2478 ft | 129 kts | 88° |
| 2026-04-21 22:15 | 51.37391 | -2.95094 | 2476 ft | 130 kts | 86° |
| 2026-04-21 22:15 | 51.37443 | -2.93641 | 2473 ft | 134 kts | 86° |
| 2026-04-21 22:16 | 51.37506 | -2.92124 | 2466 ft | 139 kts | 88° |
| 2026-04-21 22:16 | 51.37562 | -2.90586 | 2487 ft | 134 kts | 87° |
| 2026-04-21 22:16 | 51.37614 | -2.89204 | 2463 ft | 118 kts | 88° |
| 2026-04-21 22:16 | 51.37664 | -2.87942 | 2483 ft | 110 kts | 86° |
| 2026-04-21 22:17 | 51.37710 | -2.86709 | 2400 ft | 111 kts | 86° |
| 2026-04-21 22:17 | 51.37759 | -2.85452 | 2249 ft | 115 kts | 88° |
| 2026-04-21 22:17 | 51.37801 | -2.84188 | 2068 ft | 109 kts | 88° |
| 2026-04-21 22:17 | 51.37848 | -2.83062 | 1931 ft | 99 kts | 86° |
| 2026-04-21 22:18 | 51.37884 | -2.81979 | 1764 ft | 93 kts | 85° |
| 2026-04-21 22:18 | 51.37921 | -2.81051 | 1626 ft | 77 kts | 88° |
| 2026-04-21 22:18 | 51.37950 | -2.80264 | 1397 ft | 72 kts | 87° |
| 2026-04-21 22:18 | 51.37980 | -2.79429 | 1223 ft | 73 kts | 82° |
| 2026-04-21 22:19 | 51.38004 | -2.78603 | 1184 ft | 85 kts | 85° |
| 2026-04-21 22:19 | 51.38075 | -2.77433 | 1264 ft | 121 kts | 86° |
| 2026-04-21 22:19 | 51.38107 | -2.76057 | 1111 ft | 113 kts | 87° |
| 2026-04-21 22:19 | 51.38151 | -2.74898 | 858 ft | 97 kts | 85° |
| 2026-04-21 22:20 | 51.38191 | -2.73843 | 710 ft | 95 kts | 83° |
| 2026-04-21 22:20 | 51.38232 | -2.72803 | 617 ft | 91 kts | 84° |
| 2026-04-21 22:20 | 51.38268 | -2.71945 | 612 ft | 62 kts | 87° |
| 2026-04-21 22:20 | 51.38290 | -2.71371 | 607 ft | 44 kts | 83° |
| 2026-04-21 22:21 | 51.38304 | -2.70981 | 603 ft | 27 kts | 85° |
| 2026-04-21 22:21 | 51.38310 | -2.70812 | 603 ft | 7 kts | 77° |
| 2026-04-21 22:21 | 51.38338 | -2.70764 | 603 ft | 4 kts | 18° |
| 2026-04-21 22:21 | 51.38359 | -2.70751 | 603 ft | 3 kts | 23° |
| 2026-04-21 22:22 | 51.38380 | -2.70738 | 609 ft | 4 kts | 17° |
| 2026-04-21 22:22 | 51.38415 | -2.70720 | 609 ft | 5 kts | 19° |
| 2026-04-21 22:22 | 51.38445 | -2.70711 | 611 ft | 4 kts | 343° |
| 2026-04-21 22:22 | 51.38467 | -2.70736 | 616 ft | 4 kts | 316° |
| 2026-04-21 22:23 | 51.38490 | -2.70769 | 604 ft | 5 kts | 320° |
| 2026-04-21 22:23 | 51.38518 | -2.70804 | 613 ft | 6 kts | 323° |
| 2026-04-21 22:23 | 51.38528 | -2.70799 | 609 ft | 2 kts | 57° |
| 2026-04-21 22:23 | 51.38529 | -2.70782 | 604 ft | 0 kts | 88° |
| 2026-04-21 22:32 | 51.38529 | -2.70774 | 604 ft | 3 kts | 87° |
| 2026-04-21 22:32 | 51.38529 | -2.70687 | 604 ft | 10 kts | 117° |
| 2026-04-21 22:32 | 51.38478 | -2.70679 | 614 ft | 8 kts | 201° |
| 2026-04-21 22:33 | 51.38424 | -2.70716 | 612 ft | 9 kts | 201° |
| 2026-04-21 22:33 | 51.38362 | -2.70750 | 603 ft | 10 kts | 197° |
| 2026-04-21 22:33 | 51.38300 | -2.70806 | 603 ft | 8 kts | 255° |
| 2026-04-21 22:33 | 51.38299 | -2.70834 | 603 ft | 0 kts | 266° |
| 2026-04-21 22:34 | 51.38299 | -2.70845 | 603 ft | 0 kts | 266° |
| 2026-04-21 22:34 | 51.38292 | -2.71121 | 604 ft | 80 kts | 269° |
| 2026-04-21 22:34 | 51.38244 | -2.72617 | 717 ft | 177 kts | 265° |
| 2026-04-21 22:35 | 51.38124 | -2.74600 | 2194 ft | 163 kts | 263° |
| 2026-04-21 22:35 | 51.37946 | -2.76846 | 3078 ft | 229 kts | 261° |
| 2026-04-21 22:35 | 51.37640 | -2.79402 | 3574 ft | 237 kts | 246° |
| 2026-04-21 22:35 | 51.36472 | -2.81103 | 3578 ft | 236 kts | 195° |
| 2026-04-21 22:36 | 51.33986 | -2.79179 | 2772 ft | 238 kts | 95° |
| 2026-04-21 22:36 | 51.34002 | -2.76578 | 2648 ft | 211 kts | 88° |
| 2026-04-21 22:36 | 51.34025 | -2.74456 | 2784 ft | 183 kts | 88° |
| 2026-04-21 22:37 | 51.34045 | -2.72368 | 2359 ft | 192 kts | 90° |
| 2026-04-21 22:37 | 51.34262 | -2.70320 | 2198 ft | 185 kts | 66° |
| 2026-04-21 22:37 | 51.35027 | -2.68762 | 2160 ft | 170 kts | 43° |
| 2026-04-21 22:37 | 51.36054 | -2.68095 | 2028 ft | 157 kts | 19° |
| 2026-04-21 22:38 | 51.37110 | -2.67988 | 1747 ft | 148 kts | 6° |
| 2026-04-21 22:38 | 51.38060 | -2.68508 | 1189 ft | 148 kts | 324° |
| 2026-04-21 22:38 | 51.38346 | -2.69923 | 733 ft | 135 kts | 265° |
| 2026-04-21 22:38 | 51.38294 | -2.71306 | 613 ft | 110 kts | 265° |
| 2026-04-21 22:39 | 51.38246 | -2.72599 | 631 ft | 135 kts | 269° |
| 2026-04-21 22:39 | 51.38161 | -2.74245 | 878 ft | 159 kts | 265° |
| 2026-04-21 22:39 | 51.38119 | -2.76155 | 1367 ft | 186 kts | 274° |
| 2026-04-21 22:39 | 51.37953 | -2.78288 | 1896 ft | 206 kts | 240° |
| 2026-04-21 22:40 | 51.36863 | -2.79626 | 1965 ft | 194 kts | 185° |
| 2026-04-21 22:40 | 51.35682 | -2.79513 | 2531 ft | 155 kts | 152° |
| 2026-04-21 22:40 | 51.35097 | -2.78206 | 2257 ft | 160 kts | 90° |
| 2026-04-21 22:40 | 51.35194 | -2.76499 | 2368 ft | 153 kts | 85° |
| 2026-04-21 22:41 | 51.35208 | -2.75899 | 2331 ft | 155 kts | 89° |
| 2026-04-21 22:41 | 51.35204 | -2.74907 | 2196 ft | 162 kts | 90° |
| 2026-04-21 22:41 | 51.35144 | -2.73152 | 2154 ft | 159 kts | 94° |
| 2026-04-21 22:42 | 51.35061 | -2.71397 | 2033 ft | 156 kts | 92° |
| 2026-04-21 22:42 | 51.35096 | -2.69663 | 2015 ft | 149 kts | 79° |
| 2026-04-21 22:42 | 51.35512 | -2.68441 | 2041 ft | 112 kts | 50° |
| 2026-04-21 22:42 | 51.36252 | -2.67959 | 1771 ft | 121 kts | 17° |
| 2026-04-21 22:43 | 51.37084 | -2.68060 | 1594 ft | 120 kts | 0° |
| 2026-04-21 22:43 | 51.37897 | -2.68457 | 1254 ft | 126 kts | 343° |
| 2026-04-21 22:43 | 51.38364 | -2.69564 | 936 ft | 130 kts | 271° |
| 2026-04-21 22:43 | 51.38294 | -2.70991 | 612 ft | 122 kts | 267° |
| 2026-04-21 22:44 | 51.38265 | -2.72186 | 618 ft | 94 kts | 266° |
| 2026-04-21 22:44 | 51.38224 | -2.73100 | 614 ft | 58 kts | 266° |
| 2026-04-21 22:44 | 51.38288 | -2.73345 | 617 ft | 18 kts | 6° |
| 2026-04-21 22:44 | 51.38380 | -2.73256 | 619 ft | 16 kts | 74° |
| 2026-04-21 22:45 | 51.38391 | -2.73085 | 615 ft | 15 kts | 84° |
| 2026-04-21 22:45 | 51.38401 | -2.72918 | 614 ft | 15 kts | 85° |
| 2026-04-21 22:45 | 51.38410 | -2.72758 | 614 ft | 14 kts | 88° |
| 2026-04-21 22:45 | 51.38408 | -2.72608 | 613 ft | 13 kts | 86° |
| 2026-04-21 22:46 | 51.38416 | -2.72462 | 612 ft | 13 kts | 84° |
| 2026-04-21 22:46 | 51.38419 | -2.72320 | 612 ft | 13 kts | 87° |
| 2026-04-21 22:46 | 51.38425 | -2.72178 | 618 ft | 12 kts | 89° |
| 2026-04-21 22:46 | 51.38442 | -2.71857 | 616 ft | 76 kts | 84° |
| 2026-04-21 22:47 | 51.38521 | -2.70800 | 1638 ft | 58 kts | 89° |
| 2026-04-21 22:47 | 51.38552 | -2.70207 | 1858 ft | 87 kts | 30° |
| 2026-04-21 22:47 | 51.39121 | -2.70926 | 612 ft | 63 kts | 79° |
| 2026-04-21 22:47 | 51.39142 | -2.70961 | 613 ft | 0 kts | 277° |